createdAt,value
2019-06-20T00:02:59.534Z,100283.39
2019-06-20T00:08:05.738Z,100292.97
2019-06-20T00:13:11.392Z,100311.52
2019-06-20T00:18:17.286Z,100307.99
2019-06-20T00:23:23.324Z,100309.11
2019-06-20T00:28:29.308Z,100314.34
2019-06-20T00:33:34.818Z,100325.23
2019-06-20T00:38:40.647Z,100332.62
2019-06-20T00:43:47.435Z,100338.90
2019-06-20T00:48:53.329Z,100339.73
2019-06-20T00:53:58.857Z,100357.17
2019-06-20T00:59:04.744Z,100365.87
2019-06-20T01:04:10.562Z,100376.51
2019-06-20T01:09:16.482Z,100394.20
2019-06-20T01:14:22.494Z,100410.57
2019-06-20T01:19:28.324Z,100421.62
2019-06-20T01:24:34.130Z,100407.94
2019-06-20T01:29:39.995Z,100399.55
2019-06-20T01:34:45.882Z,100388.63
2019-06-20T01:39:52.477Z,100372.28
2019-06-20T01:44:58.271Z,100350.48
2019-06-20T01:50:06.213Z,100349.39
2019-06-20T01:55:11.438Z,100333.85
2019-06-20T02:00:35.070Z,100344.11
2019-06-20T02:05:40.929Z,100356.05
2019-06-20T02:10:46.752Z,100370.94
2019-06-20T02:15:52.917Z,100376.53
2019-06-20T02:20:59.574Z,100378.75
2019-06-20T02:26:05.543Z,100375.30
2019-06-20T02:31:11.427Z,100376.38
2019-06-20T02:36:18.367Z,100365.19
2019-06-20T02:41:24.219Z,100376.90
2019-06-20T02:46:30.296Z,100379.99
2019-06-20T02:51:36.144Z,100380.95
2019-06-20T02:56:42.002Z,100371.63
2019-06-20T03:01:48.170Z,100374.86
2019-06-20T03:06:54.461Z,100378.63
2019-06-20T03:12:00.061Z,100367.67
2019-06-20T03:17:06.897Z,100373.19
2019-06-20T03:22:12.583Z,100348.27
2019-06-20T03:27:18.357Z,100334.11
2019-06-20T03:32:24.337Z,100324.71
2019-06-20T03:37:29.998Z,100330.45
2019-06-20T03:42:35.577Z,100332.78
2019-06-20T03:47:41.433Z,100343.82
2019-06-20T03:52:49.224Z,100347.39
2019-06-20T03:57:54.808Z,100350.59
2019-06-20T04:03:01.016Z,100354.95
2019-06-20T04:08:06.933Z,100362.37
2019-06-20T04:13:13.086Z,100358.56
2019-06-20T04:18:18.909Z,100372.41
2019-06-20T04:23:24.684Z,100380.30
2019-06-20T04:28:30.444Z,100377.04
2019-06-20T04:33:36.129Z,100371.69
2019-06-20T04:38:41.777Z,100374.94
2019-06-20T04:43:47.548Z,100381.55
2019-06-20T04:48:53.481Z,100403.14
2019-06-20T04:53:59.528Z,100440.55
2019-06-20T04:59:05.329Z,100438.27
2019-06-20T05:04:11.140Z,100435.95
2019-06-20T05:09:17.397Z,100427.32
2019-06-20T05:14:24.127Z,100413.39
2019-06-20T05:19:30.088Z,100413.13
2019-06-20T05:24:35.963Z,100412.31
2019-06-20T05:29:41.896Z,100401.70
2019-06-20T05:34:47.697Z,100392.13
2019-06-20T05:39:53.560Z,100375.27
2019-06-20T05:44:59.572Z,100378.05
2019-06-20T05:50:09.241Z,100384.09
2019-06-20T05:55:15.422Z,100378.44
2019-06-20T06:00:22.412Z,100392.34
2019-06-20T06:05:28.392Z,100390.14
2019-06-20T06:10:34.318Z,100395.09
2019-06-20T06:15:40.971Z,100386.03
2019-06-20T06:20:46.993Z,100394.24
2019-06-20T06:25:52.858Z,100389.17
2019-06-20T06:30:58.625Z,100384.43
2019-06-20T06:36:05.423Z,100382.59
2019-06-20T06:41:11.271Z,100388.25
2019-06-20T06:46:17.165Z,100391.77
2019-06-20T06:51:22.927Z,100411.36
2019-06-20T06:56:28.519Z,100403.06
2019-06-20T07:01:34.309Z,100414.47
2019-06-20T07:06:40.231Z,100424.80
2019-06-20T07:11:46.205Z,100421.94
2019-06-20T07:17:00.303Z,100448.31
2019-06-20T07:22:00.159Z,100481.95
2019-06-20T07:27:06.133Z,100508.42
2019-06-20T07:32:14.347Z,100507.12
2019-06-20T07:37:20.608Z,100534.47
2019-06-20T07:42:26.576Z,100529.46
2019-06-20T07:47:32.428Z,100539.64
2019-06-20T07:52:38.659Z,100551.12
2019-06-20T07:57:44.406Z,100554.10
2019-06-20T08:02:50.566Z,100557.93
2019-06-20T08:07:56.425Z,100568.58
2019-06-20T08:13:02.326Z,100645.13
2019-06-20T08:18:09.418Z,100670.25
2019-06-20T08:23:15.131Z,100653.59
2019-06-20T08:28:20.861Z,100647.19
2019-06-20T08:33:26.721Z,100629.58
2019-06-20T08:38:35.057Z,100662.50
2019-06-20T08:43:41.027Z,100727.12
2019-06-20T08:48:46.786Z,100801.52
2019-06-20T08:53:52.690Z,100996.73
2019-06-20T08:58:58.582Z,101140.27
2019-06-20T09:04:04.809Z,101304.33
2019-06-20T09:09:10.565Z,101552.00
2019-06-20T09:14:16.503Z,101787.45
2019-06-20T09:19:22.363Z,102043.77
2019-06-20T09:24:28.387Z,101883.88
2019-06-20T09:29:41.805Z,101739.88
2019-06-20T09:34:41.888Z,101540.37
2019-06-20T09:39:51.557Z,101423.09
2019-06-20T09:44:58.453Z,101429.84
2019-06-20T09:50:06.996Z,101498.63
2019-06-20T09:55:12.997Z,101522.11
2019-06-20T10:00:21.436Z,101362.34
2019-06-20T10:05:27.336Z,101293.14
2019-06-20T10:10:34.849Z,101336.20
2019-06-20T10:15:40.702Z,101310.84
2019-06-20T10:20:47.262Z,101327.61
2019-06-20T10:25:53.687Z,101441.99
2019-06-20T10:30:59.663Z,101294.36
2019-06-20T10:36:06.898Z,101127.96
2019-06-20T10:41:12.973Z,101081.73
2019-06-20T10:46:18.819Z,100989.52
2019-06-20T10:51:35.576Z,101016.91
2019-06-20T10:56:42.288Z,100930.09
2019-06-20T11:01:50.596Z,100932.82
2019-06-20T11:06:58.220Z,100892.79
2019-06-20T11:12:04.030Z,100862.38
2019-06-20T11:17:09.678Z,100938.84
2019-06-20T11:22:15.794Z,100899.16
2019-06-20T11:27:21.459Z,100868.41
2019-06-20T11:32:27.491Z,100859.05
2019-06-20T11:37:35.050Z,100845.19
2019-06-20T11:42:41.996Z,100835.59
2019-06-20T11:47:48.149Z,100843.81
2019-06-20T11:52:54.096Z,100851.68
2019-06-20T11:58:00.254Z,100807.37
2019-06-20T12:03:06.518Z,100803.01
2019-06-20T12:08:12.940Z,100819.47
2019-06-20T12:13:18.711Z,100781.34
2019-06-20T12:18:24.700Z,100799.14
2019-06-20T12:23:30.548Z,100794.81
2019-06-20T12:28:36.196Z,100785.77
2019-06-20T12:33:42.518Z,100742.47
2019-06-20T12:38:50.908Z,100734.56
2019-06-20T12:43:56.817Z,100726.23
2019-06-20T12:49:02.702Z,100713.19
2019-06-20T12:54:08.925Z,100709.95
2019-06-20T12:59:14.820Z,100723.11
2019-06-20T13:04:20.785Z,100701.29
2019-06-20T13:09:28.152Z,100697.06
2019-06-20T13:14:34.576Z,100692.13
2019-06-20T13:19:40.398Z,100702.83
2019-06-20T13:24:47.209Z,100688.09
2019-06-20T13:29:53.161Z,100654.63
2019-06-20T13:34:59.025Z,100631.11
2019-06-20T13:40:12.402Z,100623.09
2019-06-20T13:45:21.216Z,100621.73
2019-06-20T13:50:29.521Z,100610.37
2019-06-20T13:55:35.270Z,100614.81
2019-06-20T14:00:42.972Z,100607.19
2019-06-20T14:05:49.917Z,100614.27
2019-06-20T14:10:55.663Z,100606.89
2019-06-20T14:16:01.504Z,100610.87
2019-06-20T14:21:07.395Z,100617.77
2019-06-20T14:26:13.166Z,100629.52
2019-06-20T14:31:19.028Z,100623.69
2019-06-20T14:36:24.942Z,100599.66
2019-06-20T14:41:30.902Z,100597.48
2019-06-20T14:46:36.959Z,100582.11
2019-06-20T14:51:43.568Z,100589.99
2019-06-20T14:56:52.313Z,100579.19
2019-06-20T15:01:58.148Z,100590.20
2019-06-20T15:07:03.912Z,100588.19
2019-06-20T15:12:09.800Z,100597.54
2019-06-20T15:17:15.598Z,100597.99
2019-06-20T15:22:21.384Z,100595.69
2019-06-20T15:27:28.102Z,100604.16
2019-06-20T15:32:34.072Z,100612.89
2019-06-20T15:37:40.023Z,100619.97
2019-06-20T15:42:45.735Z,100621.22
2019-06-20T15:47:51.671Z,100627.58
2019-06-20T15:52:57.564Z,100610.54
2019-06-20T15:58:04.400Z,100603.72
2019-06-20T16:03:14.374Z,100630.63
2019-06-20T16:08:18.420Z,100663.02
2019-06-20T16:13:24.370Z,100655.80
2019-06-20T16:18:30.212Z,100673.65
2019-06-20T16:23:35.980Z,100710.23
2019-06-20T16:28:41.957Z,100733.22
2019-06-20T16:33:47.622Z,100717.89
2019-06-20T16:38:57.673Z,100763.27
2019-06-20T16:44:05.861Z,100767.67
2019-06-20T16:49:12.426Z,100774.23
2019-06-20T16:54:18.283Z,100763.80
2019-06-20T16:59:28.270Z,100791.27
2019-06-20T17:04:36.123Z,100788.74
2019-06-20T17:09:41.991Z,100782.81
2019-06-20T17:14:48.026Z,100771.98
2019-06-20T17:19:54.184Z,100775.55
2019-06-20T17:25:00.066Z,100674.08
2019-06-20T17:30:16.587Z,100683.94
2019-06-20T17:35:23.458Z,100657.53
2019-06-20T17:40:29.854Z,100670.73
2019-06-20T17:45:35.631Z,100710.44
2019-06-20T17:50:41.705Z,100698.98
2019-06-20T17:55:47.472Z,100701.47
2019-06-20T18:00:53.372Z,100708.70
2019-06-20T18:05:59.107Z,100707.70
2019-06-20T18:11:05.119Z,100710.52
2019-06-20T18:16:24.704Z,100712.36
2019-06-20T18:21:20.080Z,100705.14
2019-06-20T18:26:26.035Z,100700.10
2019-06-20T18:31:31.761Z,100718.11
2019-06-20T18:36:38.304Z,100728.77
2019-06-20T18:41:47.336Z,100726.19
2019-06-20T18:46:51.848Z,100734.18
2019-06-20T18:51:59.303Z,100754.52
2019-06-20T18:57:05.378Z,100796.16
2019-06-20T19:02:11.220Z,100824.53
2019-06-20T19:07:17.189Z,100874.61
2019-06-20T19:12:22.809Z,100900.16
2019-06-20T19:17:29.607Z,100920.48
2019-06-20T19:22:35.470Z,100945.44
2019-06-20T19:27:46.689Z,100940.48
2019-06-20T19:32:48.849Z,100953.90
2019-06-20T19:37:54.843Z,100962.89
2019-06-20T19:43:00.610Z,100991.50
2019-06-20T19:48:10.837Z,101000.17
2019-06-20T19:53:23.682Z,101042.69
2019-06-20T19:58:36.159Z,101122.17
2019-06-20T20:03:48.216Z,101312.63
2019-06-20T20:09:00.205Z,101491.70
2019-06-20T20:14:12.865Z,101617.02
2019-06-20T20:19:24.663Z,101813.23
2019-06-20T20:24:32.514Z,102003.92
2019-06-20T20:29:38.460Z,102085.98
2019-06-20T20:34:44.267Z,102176.76
2019-06-20T20:39:49.892Z,102257.25
2019-06-20T20:45:00.900Z,102264.06
2019-06-20T20:50:14.245Z,102246.97
2019-06-20T20:55:22.143Z,102216.43
2019-06-20T21:00:37.277Z,102234.77
2019-06-20T21:05:51.371Z,102163.88
2019-06-20T21:10:50.627Z,102161.12
2019-06-20T21:15:56.450Z,102136.77
2019-06-20T21:21:02.437Z,102106.98
2019-06-20T21:26:08.269Z,102104.30
2019-06-20T21:31:14.141Z,102143.27
2019-06-20T21:36:19.907Z,102121.73
2019-06-20T21:41:25.673Z,102109.09
2019-06-20T21:46:31.404Z,102093.83
2019-06-20T21:51:37.313Z,102130.11
2019-06-20T21:56:43.394Z,102109.38
2019-06-20T22:01:49.269Z,102215.66
2019-06-20T22:06:55.041Z,102220.83
2019-06-20T22:12:04.992Z,102218.33
2019-06-20T22:17:16.897Z,102295.84
2019-06-20T22:22:29.346Z,102347.88
2019-06-20T22:27:41.635Z,102370.77
2019-06-20T22:32:49.493Z,102374.84
2019-06-20T22:37:55.259Z,102387.34
2019-06-20T22:43:00.957Z,102357.47
2019-06-20T22:48:06.974Z,102290.86
2019-06-20T22:53:12.779Z,102245.88
2019-06-20T22:58:18.557Z,102326.05
2019-06-20T23:03:24.816Z,102232.92
2019-06-20T23:08:30.694Z,102128.42
2019-06-20T23:13:36.443Z,102072.70
2019-06-20T23:18:42.455Z,102033.55
2019-06-20T23:23:48.271Z,102024.20
2019-06-20T23:29:12.071Z,102024.95
2019-06-20T23:34:18.091Z,102005.75
2019-06-20T23:39:24.049Z,101973.30
2019-06-20T23:44:29.982Z,101923.91
2019-06-20T23:49:35.785Z,101917.52
2019-06-20T23:54:41.613Z,101916.60
2019-06-20T23:59:47.517Z,101908.55
